Hoegh Berlin — C6XQ4 — position and weather

sailwx.info

Track history (hours):
 
Tides and Currents Weather Stations Pressure Air Temp Water Temp Dewpoint Dewpoint Depression Visibility Wind Speed Wind Dir Waves Ship Positions

Hoegh Berlin

Last reported at 2014-Oct-12 09:04 UTC. Time now 2014-Oct-31 11:35 UTC.
Position N 35°05' E 139°44'.
Warning: this ship's position is 19 days out of date.

Length 228 m; draft 8.9 m.

Type: Cargo ship. MMSI: 311019100.

Date/timePositionNaut miles runAvg speedWind from/ knotsBaromVisibWave heightAir tempDewpointWater temp
2014-Oct-12 09:04N 35°05' E 139°44'713.9
2014-Oct-12 08:33N 35°12' E 139°46'1212.3
2014-Oct-12 07:33N 35°24' E 139°43'6 6.0
2014-Oct-12 06:33N 35°30' E 139°46'0 0.0
2014-Oct-12 05:33N 35°30' E 139°46'0 0.0
2014-Oct-12 04:33N 35°30' E 139°46'0 0.0
2014-Oct-12 03:33N 35°30' E 139°46'0 0.0
2014-Oct-12 02:33N 35°30' E 139°46'0 0.0
2014-Oct-12 01:33N 35°30' E 139°46'1 1.4
2014-Oct-12 00:33N 35°29' E 139°48'1111.2
2014-Oct-11 23:33N 35°18' E 139°45'10 9.6
2014-Oct-11 22:33N 35°08' E 139°46'9 9.1
2014-Oct-11 21:33N 35°00' E 139°41'241 7.1
2014-Oct-10 11:32N 34°03' E 134°57'1010.4
2014-Oct-10 10:33N 34°14' E 134°57'1414.4
2014-Oct-10 09:33N 34°26' E 135°06'1616.4
2014-Oct-10 08:33N 34°39' E 135°18'3 2.5
2014-Oct-10 07:26N 34°41' E 135°17'0 0.0
2014-Oct-10 06:14N 34°41' E 135°17'0 0.0
2014-Oct-10 05:26N 34°41' E 135°17'0 0.0
2014-Oct-10 04:32N 34°41' E 135°17'0 0.0
2014-Oct-10 03:20N 34°41' E 135°17'0 0.0
2014-Oct-10 02:32N 34°41' E 135°17'0 0.0
2014-Oct-10 01:32N 34°41' E 135°17'1 1.2
2014-Oct-10 00:33N 34°41' E 135°18'1010.0
2014-Oct-09 23:33N 34°32' E 135°13'1716.4
2014-Oct-09 22:33N 34°19' E 135°00'1313.3
2014-Oct-09 21:33N 34°06' E 135°00'130 7.6
2014-Oct-09 04:31N 34°06' E 132°23'1313.8
2014-Oct-09 03:33N 34°20' E 132°22'1 1.3
2014-Oct-09 02:31N 34°21' E 132°22'0 0.0
2014-Oct-09 01:28N 34°21' E 132°22'0 0.0
2014-Oct-09 00:31N 34°21' E 132°22'0 0.0
2014-Oct-08 23:25N 34°21' E 132°22'0 0.0
2014-Oct-08 22:31N 34°21' E 132°22'0 0.3
2014-Oct-08 21:33N 34°21' E 132°22'1010.2
2014-Oct-08 20:33N 34°10' E 132°21'10412.7
2014-Oct-08 12:20N 32°27' E 132°11'1316.3
2014-Oct-08 11:33N 32°14' E 132°09'51715.6
2014-Oct-07 02:29N 29°39' E 122°34'1414.5
2014-Oct-07 01:31N 29°45' E 122°19'10 9.9
2014-Oct-07 00:32N 29°51' E 122°10'9 9.7
2014-Oct-06 23:34N 29°46' E 122°01'0 0.0
2014-Oct-06 16:15N 29°46' E 122°01'0 0.0
2014-Oct-06 13:09N 29°46' E 122°01'0 0.0
2014-Oct-06 11:07N 29°46' E 122°01'1 1.8
2014-Oct-06 10:33N 29°47' E 122°02'7 7.0
2014-Oct-06 09:33N 29°50' E 122°09'1110.3
2014-Oct-06 08:32N 29°45' E 122°20'1111.4
2014-Oct-06 07:33N 29°43' E 122°32'2612.9
2014-Oct-06 05:31N 29°16' E 122°35'41613.4
2014-Oct-04 22:33N 22°46' E 119°54'  
Track history (hours):
 
Tides and Currents Weather Stations Pressure Air Temp Water Temp Dewpoint Dewpoint Depression Visibility Wind Speed Wind Dir Waves Ship Positions

Hoegh Berlin

Last reported at 2014-Oct-12 09:04 UTC. Time now 2014-Oct-31 11:35 UTC.
Position N 35°05' E 139°44'.
Warning: this ship's position is 19 days out of date.

Length 228 m; draft 8.9 m.

Type: Cargo ship. MMSI: 311019100.

Date/timePositionNaut miles runAvg speedWind from/ knotsBaromVisibWave heightAir tempDewpointWater temp
2014-Oct-12 09:04N 35°05' E 139°44'713.9
2014-Oct-12 08:33N 35°12' E 139°46'1212.3
2014-Oct-12 07:33N 35°24' E 139°43'6 6.0
2014-Oct-12 06:33N 35°30' E 139°46'0 0.0
2014-Oct-12 05:33N 35°30' E 139°46'0 0.0
2014-Oct-12 04:33N 35°30' E 139°46'0 0.0
2014-Oct-12 03:33N 35°30' E 139°46'0 0.0
2014-Oct-12 02:33N 35°30' E 139°46'0 0.0
2014-Oct-12 01:33N 35°30' E 139°46'1 1.4
2014-Oct-12 00:33N 35°29' E 139°48'1111.2
2014-Oct-11 23:33N 35°18' E 139°45'10 9.6
2014-Oct-11 22:33N 35°08' E 139°46'9 9.1
2014-Oct-11 21:33N 35°00' E 139°41'241 7.1
2014-Oct-10 11:32N 34°03' E 134°57'1010.4
2014-Oct-10 10:33N 34°14' E 134°57'1414.4
2014-Oct-10 09:33N 34°26' E 135°06'1616.4
2014-Oct-10 08:33N 34°39' E 135°18'3 2.5
2014-Oct-10 07:26N 34°41' E 135°17'0 0.0
2014-Oct-10 06:14N 34°41' E 135°17'0 0.0
2014-Oct-10 05:26N 34°41' E 135°17'0 0.0
2014-Oct-10 04:32N 34°41' E 135°17'0 0.0
2014-Oct-10 03:20N 34°41' E 135°17'0 0.0
2014-Oct-10 02:32N 34°41' E 135°17'0 0.0
2014-Oct-10 01:32N 34°41' E 135°17'1 1.2
2014-Oct-10 00:33N 34°41' E 135°18'1010.0
2014-Oct-09 23:33N 34°32' E 135°13'1716.4
2014-Oct-09 22:33N 34°19' E 135°00'1313.3
2014-Oct-09 21:33N 34°06' E 135°00'130 7.6
2014-Oct-09 04:31N 34°06' E 132°23'1313.8
2014-Oct-09 03:33N 34°20' E 132°22'1 1.3
2014-Oct-09 02:31N 34°21' E 132°22'0 0.0
2014-Oct-09 01:28N 34°21' E 132°22'0 0.0
2014-Oct-09 00:31N 34°21' E 132°22'0 0.0
2014-Oct-08 23:25N 34°21' E 132°22'0 0.0
2014-Oct-08 22:31N 34°21' E 132°22'0 0.3
2014-Oct-08 21:33N 34°21' E 132°22'1010.2
2014-Oct-08 20:33N 34°10' E 132°21'10412.7
2014-Oct-08 12:20N 32°27' E 132°11'1316.3
2014-Oct-08 11:33N 32°14' E 132°09'51715.6
2014-Oct-07 02:29N 29°39' E 122°34'1414.5
2014-Oct-07 01:31N 29°45' E 122°19'10 9.9
2014-Oct-07 00:32N 29°51' E 122°10'9 9.7
2014-Oct-06 23:34N 29°46' E 122°01'0 0.0
2014-Oct-06 16:15N 29°46' E 122°01'0 0.0
2014-Oct-06 13:09N 29°46' E 122°01'0 0.0
2014-Oct-06 11:07N 29°46' E 122°01'1 1.8
2014-Oct-06 10:33N 29°47' E 122°02'7 7.0
2014-Oct-06 09:33N 29°50' E 122°09'1110.3
2014-Oct-06 08:32N 29°45' E 122°20'1111.4
2014-Oct-06 07:33N 29°43' E 122°32'2612.9
2014-Oct-06 05:31N 29°16' E 122°35'41613.4
2014-Oct-04 22:33N 22°46' E 119°54'  

Dump ship's entire track history